This is the latest recevied weather packets stored in our database for station/object EA1IOS-11. If no packets are shown the sender has not sent any weather packets the latest 10 day(s).
| Time | Temp. | Humidity | Pressure | Rain* | Wind** | Luminosity | Snow |
|---|---|---|---|---|---|---|---|
| 1778132717 | 11.11° C | 90% | 1012.6 hPa | 0 mm | - | - | - |
| 1778126785 | 12.22° C | 87% | 1012.9 hPa | 0 mm | - | - | - |
| 1778123139 | 12.22° C | 86% | 1013.2 hPa | 0 mm | - | - | - |
| 1778120741 | 12.22° C | 85% | 1013.3 hPa | 0 mm | - | - | - |
| 1778119567 | 12.22° C | 86% | 1013.5 hPa | 0 mm | - | - | - |
| 1778118358 | 12.22° C | 86% | 1013.7 hPa | 0 mm | - | - | - |
| 1778110557 | 13.33° C | 86% | 1014.8 hPa | 0 mm | - | - | - |
| 1778108744 | 13.33° C | 84% | 1014.7 hPa | 0 mm | - | - | - |
| 1778106327 | 13.33° C | 85% | 1015 hPa | 0 mm | - | - | - |
| 1778103668 | 13.89° C | 84% | 1015.2 hPa | 0 mm | - | - | - |
| 1778100631 | 14.44° C | 80% | 1015.4 hPa | 0 mm | - | - | - |
| 1778099416 | 14.44° C | 80% | 1015.3 hPa | 0 mm | - | - | - |
| 1778087434 | 17.22° C | 75% | 1015 hPa | 0 mm | - | - | - |
| 1778082384 | 18.33° C | 69% | 1014.9 hPa | 0 mm | - | - | - |
| 1778075440 | 17.22° C | 72% | 1015.6 hPa | 0 mm | - | - | - |
| 1778072457 | 16.11° C | 75% | 1015.6 hPa | 0 mm | - | - | - |
| 1778069143 | 16.11° C | 73% | 1016 hPa | 0 mm | - | - | - |
| 1778067928 | 17.22° C | 67% | 1016.1 hPa | 0 mm | - | - | - |
| 1778062517 | 16.11° C | 69% | 1016.3 hPa | 0 mm | - | - | - |
| 1778061967 | 16.11° C | 69% | 1016.2 hPa | 0 mm | - | - | - |
| 1778061357 | 15.56° C | 71% | 1016.3 hPa | 0 mm | - | - | - |
| 1778056555 | 13.89° C | 78% | 1016.2 hPa | 0 mm | - | - | - |
| 1778054754 | 13.33° C | 81% | 1016.2 hPa | 0 mm | - | - | - |
| 1778051770 | 12.78° C | 81% | 1016.3 hPa | 0 mm | - | - | - |
| 1778049342 | 12.22° C | 81% | 1016 hPa | 0 mm | - | - | - |
* Rain latest hour (hover to see other rain measurements)
** Current wind speed in m/s (hover to see current wind gust speed)